Robinson, Illinois
Current Conditions -  °F | °C
As of 7:55 PM on Monday 24 Nov 2014 (Local Time) from KRSV Reporting Station
Overcast Overcast  
Wind Chill: 29°   Ceiling: 8500
Heat Index: 38°   Visibility: 10mi
Dew Point: 30°   Wind: 18mph
Humidity: 72%   Direction: 260°W
Pressure: 29.93"   Gusts: 24mph
Location:  39.01°N, 87.74°W
Report Text: KRSV 250155Z AUTO 26016G21KT 10SM OVC085 04/M01 A2993 RMK AO2 T00351012
Loading
Personal Weather Stations






























Interactive Weather Map New forecast layout! Learn more

10-Day Weather Forecast

Advertisements
Track Severe Weather on mobile